sensor_id;sensor_type;location;lat;lon;timestamp;pressure;altitude;pressure_sealevel;temperature
69415;BMP280;56608;43.530;-5.652;2022-08-01T00:00:37;101855.16;;;23.76
69415;BMP280;56608;43.530;-5.652;2022-08-01T00:01:37;101852.41;;;23.82
69415;BMP280;56608;43.530;-5.652;2022-08-01T00:02:38;101849.91;;;23.84
69415;BMP280;56608;43.530;-5.652;2022-08-01T00:03:38;101846.94;;;23.82
69415;BMP280;56608;43.530;-5.652;2022-08-01T00:04:39;101850.16;;;23.74
69415;BMP280;56608;43.530;-5.652;2022-08-01T00:05:39;101846.22;;;23.70
69415;BMP280;56608;43.530;-5.652;2022-08-01T00:06:39;101855.16;;;23.76
69415;BMP280;56608;43.530;-5.652;2022-08-01T00:07:40;101854.91;;;23.80
69415;BMP280;56608;43.530;-5.652;2022-08-01T00:08:40;101857.91;;;23.82
69415;BMP280;56608;43.530;-5.652;2022-08-01T00:09:41;101850.16;;;23.80
69415;BMP280;56608;43.530;-5.652;2022-08-01T00:10:41;101845.19;;;23.73
69415;BMP280;56608;43.530;-5.652;2022-08-01T00:11:41;101846.94;;;23.76
69415;BMP280;56608;43.530;-5.652;2022-08-01T00:12:42;101842.41;;;23.79
69415;BMP280;56608;43.530;-5.652;2022-08-01T00:13:42;101835.47;;;23.78
69415;BMP280;56608;43.530;-5.652;2022-08-01T00:14:43;101828.97;;;23.75
69415;BMP280;56608;43.530;-5.652;2022-08-01T00:15:43;101834.97;;;23.73
69415;BMP280;56608;43.530;-5.652;2022-08-01T00:16:44;101833.47;;;23.72
69415;BMP280;56608;43.530;-5.652;2022-08-01T00:17:44;101839.44;;;23.77
69415;BMP280;56608;43.530;-5.652;2022-08-01T00:18:45;101834.97;;;23.73
69415;BMP280;56608;43.530;-5.652;2022-08-01T00:19:45;101838.19;;;23.78
69415;BMP280;56608;43.530;-5.652;2022-08-01T00:20:45;101832.44;;;23.75
69415;BMP280;56608;43.530;-5.652;2022-08-01T00:21:45;101828.22;;;23.80
69415;BMP280;56608;43.530;-5.652;2022-08-01T00:22:46;101828.22;;;23.80
69415;BMP280;56608;43.530;-5.652;2022-08-01T00:23:46;101835.72;;;23.74
69415;BMP280;56608;43.530;-5.652;2022-08-01T00:24:47;101830.22;;;23.74
69415;BMP280;56608;43.530;-5.652;2022-08-01T00:25:47;101822.53;;;23.67
69415;BMP280;56608;43.530;-5.652;2022-08-01T00:26:47;101822.25;;;23.59
69415;BMP280;56608;43.530;-5.652;2022-08-01T00:27:48;101815.03;;;23.62
69415;BMP280;56608;43.530;-5.652;2022-08-01T00:28:48;101821.50;;;23.70
69415;BMP280;56608;43.530;-5.652;2022-08-01T00:29:48;101817.00;;;23.61
69415;BMP280;56608;43.530;-5.652;2022-08-01T00:30:49;101818.53;;;23.62
69415;BMP280;56608;43.530;-5.652;2022-08-01T00:31:49;101816.06;;;23.48
69415;BMP280;56608;43.530;-5.652;2022-08-01T00:32:49;101812.06;;;23.49
69415;BMP280;56608;43.530;-5.652;2022-08-01T00:33:50;101809.78;;;23.58
69415;BMP280;56608;43.530;-5.652;2022-08-01T00:34:50;101814.78;;;23.60
69415;BMP280;56608;43.530;-5.652;2022-08-01T00:35:50;101818.53;;;23.46
69415;BMP280;56608;43.530;-5.652;2022-08-01T00:36:51;101819.28;;;23.52
69415;BMP280;56608;43.530;-5.652;2022-08-01T00:37:51;101818.03;;;23.58
69415;BMP280;56608;43.530;-5.652;2022-08-01T00:38:52;101811.53;;;23.61
69415;BMP280;56608;43.530;-5.652;2022-08-01T00:39:52;101814.78;;;23.54
69415;BMP280;56608;43.530;-5.652;2022-08-01T00:40:53;101818.50;;;23.57
69415;BMP280;56608;43.530;-5.652;2022-08-01T00:41:53;101814.78;;;23.60
69415;BMP280;56608;43.530;-5.652;2022-08-01T00:42:53;101815.03;;;23.62
69415;BMP280;56608;43.530;-5.652;2022-08-01T00:43:54;101816.28;;;23.66
69415;BMP280;56608;43.530;-5.652;2022-08-01T00:44:54;101813.78;;;23.68
69415;BMP280;56608;43.530;-5.652;2022-08-01T00:45:54;101811.28;;;23.54
69415;BMP280;56608;43.530;-5.652;2022-08-01T00:46:55;101815.28;;;23.53
69415;BMP280;56608;43.530;-5.652;2022-08-01T00:47:55;101818.03;;;23.58
69415;BMP280;56608;43.530;-5.652;2022-08-01T00:48:56;101814.03;;;23.65
69415;BMP280;56608;43.530;-5.652;2022-08-01T00:49:56;101812.53;;;23.58
69415;BMP280;56608;43.530;-5.652;2022-08-01T00:50:57;101811.53;;;23.61
69415;BMP280;56608;43.530;-5.652;2022-08-01T00:51:57;101816.78;;;23.70
69415;BMP280;56608;43.530;-5.652;2022-08-01T00:53:01;101806.56;;;23.65
69415;BMP280;56608;43.530;-5.652;2022-08-01T00:54:01;101812.53;;;23.69
69415;BMP280;56608;43.530;-5.652;2022-08-01T00:55:02;101812.00;;;23.71
69415;BMP280;56608;43.530;-5.652;2022-08-01T00:56:02;101805.28;;;23.61
69415;BMP280;56608;43.530;-5.652;2022-08-01T00:57:03;101811.03;;;23.57
69415;BMP280;56608;43.530;-5.652;2022-08-01T00:58:03;101808.81;;;23.56
69415;BMP280;56608;43.530;-5.652;2022-08-01T00:59:04;101805.53;;;23.57
69415;BMP280;56608;43.530;-5.652;2022-08-01T01:00:05;101804.53;;;23.60
69415;BMP280;56608;43.530;-5.652;2022-08-01T01:01:06;101806.31;;;23.52
69415;BMP280;56608;43.530;-5.652;2022-08-01T01:02:06;101803.59;;;23.52
69415;BMP280;56608;43.530;-5.652;2022-08-01T01:03:07;101809.31;;;23.54
69415;BMP280;56608;43.530;-5.652;2022-08-01T01:04:07;101805.56;;;23.46
69415;BMP280;56608;43.530;-5.652;2022-08-01T01:05:08;101804.31;;;23.42
69415;BMP280;56608;43.530;-5.652;2022-08-01T01:07:27;101804.84;;;23.29
69415;BMP280;56608;43.530;-5.652;2022-08-01T01:08:35;101803.59;;;23.30
69415;BMP280;56608;43.530;-5.652;2022-08-01T01:09:43;101803.34;;;23.45
69415;BMP280;56608;43.530;-5.652;2022-08-01T01:10:51;101802.06;;;23.51
69415;BMP280;56608;43.530;-5.652;2022-08-01T01:13:05;101791.59;;;23.66
69415;BMP280;56608;43.530;-5.652;2022-08-01T01:14:09;101795.84;;;23.62
69415;BMP280;56608;43.530;-5.652;2022-08-01T01:16:13;101787.59;;;23.56
69415;BMP280;56608;43.530;-5.652;2022-08-01T01:17:15;101792.59;;;23.63
69415;BMP280;56608;43.530;-5.652;2022-08-01T01:18:28;101792.59;;;23.63
69415;BMP280;56608;43.530;-5.652;2022-08-01T01:19:31;101792.59;;;23.63
69415;BMP280;56608;43.530;-5.652;2022-08-01T01:20:36;101789.59;;;23.50
69415;BMP280;56608;43.530;-5.652;2022-08-01T01:24:28;101790.09;;;23.54
69415;BMP280;56608;43.530;-5.652;2022-08-01T01:26:52;101793.56;;;23.60
69415;BMP280;56608;43.530;-5.652;2022-08-01T01:30:30;101787.13;;;23.63
69415;BMP280;56608;43.530;-5.652;2022-08-01T01:31:32;101793.81;;;23.57
69415;BMP280;56608;43.530;-5.652;2022-08-01T01:32:36;101789.56;;;23.61
69415;BMP280;56608;43.530;-5.652;2022-08-01T01:33:39;101788.81;;;23.61
69415;BMP280;56608;43.530;-5.652;2022-08-01T01:34:42;101793.31;;;23.58
69415;BMP280;56608;43.530;-5.652;2022-08-01T01:35:46;101785.63;;;23.35
69415;BMP280;56608;43.530;-5.652;2022-08-01T01:36:49;101785.63;;;23.46
69415;BMP280;56608;43.530;-5.652;2022-08-01T01:37:51;101785.13;;;23.47
69415;BMP280;56608;43.530;-5.652;2022-08-01T01:38:53;101777.66;;;23.48
69415;BMP280;56608;43.530;-5.652;2022-08-01T01:39:54;101775.41;;;23.52
69415;BMP280;56608;43.530;-5.652;2022-08-01T01:40:55;101785.13;;;23.47
69415;BMP280;56608;43.530;-5.652;2022-08-01T01:41:56;101780.41;;;23.48
69415;BMP280;56608;43.530;-5.652;2022-08-01T01:42:58;101782.16;;;23.45
69415;BMP280;56608;43.530;-5.652;2022-08-01T01:43:58;101778.63;;;23.50
69415;BMP280;56608;43.530;-5.652;2022-08-01T01:45:00;101774.91;;;23.31
69415;BMP280;56608;43.530;-5.652;2022-08-01T01:46:03;101769.69;;;23.39
69415;BMP280;56608;43.530;-5.652;2022-08-01T01:47:04;101768.19;;;23.43
69415;BMP280;56608;43.530;-5.652;2022-08-01T01:48:06;101768.94;;;23.27
69415;BMP280;56608;43.530;-5.652;2022-08-01T01:49:07;101770.47;;;23.22
69415;BMP280;56608;43.530;-5.652;2022-08-01T01:50:10;101759.22;;;23.20
69415;BMP280;56608;43.530;-5.652;2022-08-01T01:51:12;101763.97;;;23.25
69415;BMP280;56608;43.530;-5.652;2022-08-01T01:52:14;101760.72;;;23.27
69415;BMP280;56608;43.530;-5.652;2022-08-01T01:53:18;101762.69;;;23.32
69415;BMP280;56608;43.530;-5.652;2022-08-01T01:54:19;101760.25;;;23.12
69415;BMP280;56608;43.530;-5.652;2022-08-01T01:55:20;101765.47;;;23.21
69415;BMP280;56608;43.530;-5.652;2022-08-01T01:56:21;101763.72;;;23.29
69415;BMP280;56608;43.530;-5.652;2022-08-01T01:57:22;101760.44;;;23.30
69415;BMP280;56608;43.530;-5.652;2022-08-01T01:58:24;101760.97;;;23.23
69415;BMP280;56608;43.530;-5.652;2022-08-01T01:59:27;101766.69;;;23.31
69415;BMP280;56608;43.530;-5.652;2022-08-01T02:00:29;101761.47;;;23.27
69415;BMP280;56608;43.530;-5.652;2022-08-01T02:01:31;101762.72;;;23.21
69415;BMP280;56608;43.530;-5.652;2022-08-01T02:02:31;101764.97;;;23.22
69415;BMP280;56608;43.530;-5.652;2022-08-01T02:03:33;101763.22;;;23.25
69415;BMP280;56608;43.530;-5.652;2022-08-01T02:04:36;101762.97;;;23.28
69415;BMP280;56608;43.530;-5.652;2022-08-01T02:05:38;101756.72;;;23.28
69415;BMP280;56608;43.530;-5.652;2022-08-01T02:06:39;101765.47;;;23.21
69415;BMP280;56608;43.530;-5.652;2022-08-01T02:07:39;101758.22;;;23.23
69415;BMP280;56608;43.530;-5.652;2022-08-01T02:08:40;101759.97;;;23.26
69415;BMP280;56608;43.530;-5.652;2022-08-01T02:09:42;101755.47;;;23.29
69415;BMP280;56608;43.530;-5.652;2022-08-01T02:10:42;101759.72;;;23.30
69415;BMP280;56608;43.530;-5.652;2022-08-01T02:12:03;101754.47;;;23.32
69415;BMP280;56608;43.530;-5.652;2022-08-01T02:13:05;101760.97;;;23.23
69415;BMP280;56608;43.530;-5.652;2022-08-01T02:14:06;101757.97;;;23.27
69415;BMP280;56608;43.530;-5.652;2022-08-01T02:15:08;101753.00;;;23.25
69415;BMP280;56608;43.530;-5.652;2022-08-01T02:16:09;101748.53;;;23.22
69415;BMP280;56608;43.530;-5.652;2022-08-01T02:17:15;101749.00;;;23.21
69415;BMP280;56608;43.530;-5.652;2022-08-01T02:18:16;101753.50;;;23.24
69415;BMP280;56608;43.530;-5.652;2022-08-01T02:19:17;101746.00;;;23.24
69415;BMP280;56608;43.530;-5.652;2022-08-01T02:20:18;101749.75;;;23.21
69415;BMP280;56608;43.530;-5.652;2022-08-01T02:21:20;101750.00;;;23.23
69415;BMP280;56608;43.530;-5.652;2022-08-01T02:22:25;101750.75;;;23.24
69415;BMP280;56608;43.530;-5.652;2022-08-01T02:23:28;101753.25;;;23.22
69415;BMP280;56608;43.530;-5.652;2022-08-01T02:24:36;101754.00;;;23.17
69415;BMP280;56608;43.530;-5.652;2022-08-01T02:25:46;101754.75;;;23.17
69415;BMP280;56608;43.530;-5.652;2022-08-01T02:26:49;101754.50;;;23.04
69415;BMP280;56608;43.530;-5.652;2022-08-01T02:27:53;101755.50;;;23.01
69415;BMP280;56608;43.530;-5.652;2022-08-01T02:28:56;101752.75;;;23.07
69415;BMP280;56608;43.530;-5.652;2022-08-01T02:30:01;101752.00;;;23.06
69415;BMP280;56608;43.530;-5.652;2022-08-01T02:31:05;101756.47;;;23.09
69415;BMP280;56608;43.530;-5.652;2022-08-01T02:32:07;101757.50;;;22.95
69415;BMP280;56608;43.530;-5.652;2022-08-01T02:33:17;101757.00;;;22.97
69415;BMP280;56608;43.530;-5.652;2022-08-01T02:34:18;101763.22;;;22.80
69415;BMP280;56608;43.530;-5.652;2022-08-01T02:35:20;101758.22;;;22.73
69415;BMP280;56608;43.530;-5.652;2022-08-01T02:36:23;101771.19;;;22.73
69415;BMP280;56608;43.530;-5.652;2022-08-01T02:37:25;101761.97;;;22.65
69415;BMP280;56608;43.530;-5.652;2022-08-01T02:38:27;101763.94;;;22.75
69415;BMP280;56608;43.530;-5.652;2022-08-01T02:39:28;101768.22;;;22.88
69415;BMP280;56608;43.530;-5.652;2022-08-01T02:40:31;101763.22;;;22.92
69415;BMP280;56608;43.530;-5.652;2022-08-01T02:41:33;101762.50;;;22.86
69415;BMP280;56608;43.530;-5.652;2022-08-01T02:42:35;101761.22;;;22.87
69415;BMP280;56608;43.530;-5.652;2022-08-01T02:43:38;101755.75;;;22.98
69415;BMP280;56608;43.530;-5.652;2022-08-01T02:44:41;101755.75;;;22.98
69415;BMP280;56608;43.530;-5.652;2022-08-01T02:45:45;101753.75;;;22.98
69415;BMP280;56608;43.530;-5.652;2022-08-01T02:46:49;101751.25;;;23.06
69415;BMP280;56608;43.530;-5.652;2022-08-01T02:47:50;101751.78;;;23.10
69415;BMP280;56608;43.530;-5.652;2022-08-01T02:48:52;101754.00;;;23.06
69415;BMP280;56608;43.530;-5.652;2022-08-01T02:49:53;101756.25;;;23.02
69415;BMP280;56608;43.530;-5.652;2022-08-01T02:50:55;101764.22;;;23.05
69415;BMP280;56608;43.530;-5.652;2022-08-01T02:51:57;101759.75;;;23.08
69415;BMP280;56608;43.530;-5.652;2022-08-01T02:52:58;101755.75;;;22.98
69415;BMP280;56608;43.530;-5.652;2022-08-01T02:54:00;101753.00;;;23.03
69415;BMP280;56608;43.530;-5.652;2022-08-01T02:55:02;101751.78;;;23.10
69415;BMP280;56608;43.530;-5.652;2022-08-01T02:56:03;101754.53;;;23.15
69415;BMP280;56608;43.530;-5.652;2022-08-01T02:57:05;101748.78;;;23.19
69415;BMP280;56608;43.530;-5.652;2022-08-01T02:58:06;101751.75;;;23.21
69415;BMP280;56608;43.530;-5.652;2022-08-01T02:59:09;101749.50;;;23.25
69415;BMP280;56608;43.530;-5.652;2022-08-01T03:00:11;101749.03;;;23.15
69415;BMP280;56608;43.530;-5.652;2022-08-01T03:01:12;101748.53;;;23.17
69415;BMP280;56608;43.530;-5.652;2022-08-01T03:02:13;101747.78;;;23.16
69415;BMP280;56608;43.530;-5.652;2022-08-01T03:03:14;101743.31;;;23.19
69415;BMP280;56608;43.530;-5.652;2022-08-01T03:04:15;101740.03;;;23.20
69415;BMP280;56608;43.530;-5.652;2022-08-01T03:05:17;101742.03;;;23.20
69415;BMP280;56608;43.530;-5.652;2022-08-01T03:06:18;101748.78;;;23.08
69415;BMP280;56608;43.530;-5.652;2022-08-01T03:07:18;101739.78;;;23.02
69415;BMP280;56608;43.530;-5.652;2022-08-01T03:08:19;101744.53;;;23.01
69415;BMP280;56608;43.530;-5.652;2022-08-01T03:09:20;101754.03;;;23.11
69415;BMP280;56608;43.530;-5.652;2022-08-01T03:10:21;101740.81;;;23.10
69415;BMP280;56608;43.530;-5.652;2022-08-01T03:11:23;101746.56;;;23.12
69415;BMP280;56608;43.530;-5.652;2022-08-01T03:12:25;101743.56;;;23.10
69415;BMP280;56608;43.530;-5.652;2022-08-01T03:13:26;101746.03;;;23.13
69415;BMP280;56608;43.530;-5.652;2022-08-01T03:14:29;101738.31;;;23.17
69415;BMP280;56608;43.530;-5.652;2022-08-01T03:15:31;101735.81;;;23.14
69415;BMP280;56608;43.530;-5.652;2022-08-01T03:16:32;101735.31;;;23.21
69415;BMP280;56608;43.530;-5.652;2022-08-01T03:17:33;101750.25;;;23.25
69415;BMP280;56608;43.530;-5.652;2022-08-01T03:18:34;101742.25;;;23.27
69415;BMP280;56608;43.530;-5.652;2022-08-01T03:19:35;101752.75;;;23.29
69415;BMP280;56608;43.530;-5.652;2022-08-01T03:20:37;101744.00;;;23.30
69415;BMP280;56608;43.530;-5.652;2022-08-01T03:21:38;101745.00;;;23.33
69415;BMP280;56608;43.530;-5.652;2022-08-01T03:22:39;101749.00;;;23.26
69415;BMP280;56608;43.530;-5.652;2022-08-01T03:23:41;101744.50;;;23.29
69415;BMP280;56608;43.530;-5.652;2022-08-01T03:24:42;101755.72;;;23.31
69415;BMP280;56608;43.530;-5.652;2022-08-01T03:25:43;101744.25;;;23.33
69415;BMP280;56608;43.530;-5.652;2022-08-01T03:26:44;101749.00;;;23.26
69415;BMP280;56608;43.530;-5.652;2022-08-01T03:27:48;101745.00;;;23.27
69415;BMP280;56608;43.530;-5.652;2022-08-01T03:28:50;101747.50;;;23.31
69415;BMP280;56608;43.530;-5.652;2022-08-01T03:29:51;101751.50;;;23.30
69415;BMP280;56608;43.530;-5.652;2022-08-01T03:30:52;101745.00;;;23.27
69415;BMP280;56608;43.530;-5.652;2022-08-01T03:31:52;101748.03;;;23.18
69415;BMP280;56608;43.530;-5.652;2022-08-01T03:32:53;101747.03;;;23.21
69415;BMP280;56608;43.530;-5.652;2022-08-01T03:33:53;101742.56;;;23.18
69415;BMP280;56608;43.530;-5.652;2022-08-01T03:34:54;101743.78;;;23.23
69415;BMP280;56608;43.530;-5.652;2022-08-01T03:35:54;101745.75;;;23.28
69415;BMP280;56608;43.530;-5.652;2022-08-01T03:37:03;101743.03;;;23.17
69415;BMP280;56608;43.530;-5.652;2022-08-01T03:38:05;101740.78;;;23.21
69415;BMP280;56608;43.530;-5.652;2022-08-01T03:39:07;101734.31;;;23.18
69415;BMP280;56608;43.530;-5.652;2022-08-01T03:40:09;101738.31;;;23.23
69415;BMP280;56608;43.530;-5.652;2022-08-01T03:41:20;101739.03;;;23.29
69415;BMP280;56608;43.530;-5.652;2022-08-01T03:42:23;101735.06;;;23.19
69415;BMP280;56608;43.530;-5.652;2022-08-01T03:44:28;101736.03;;;23.27
69415;BMP280;56608;43.530;-5.652;2022-08-01T03:45:34;101732.81;;;23.23
69415;BMP280;56608;43.530;-5.652;2022-08-01T03:46:39;101735.31;;;23.21
69415;BMP280;56608;43.530;-5.652;2022-08-01T03:47:41;101731.28;;;23.27
69415;BMP280;56608;43.530;-5.652;2022-08-01T03:48:43;101730.31;;;23.25
69415;BMP280;56608;43.530;-5.652;2022-08-01T03:49:44;101733.28;;;23.27
69415;BMP280;56608;43.530;-5.652;2022-08-01T03:50:48;101730.81;;;23.29
69415;BMP280;56608;43.530;-5.652;2022-08-01T03:51:49;101732.78;;;23.34
69415;BMP280;56608;43.530;-5.652;2022-08-01T03:52:49;101736.03;;;23.33
69415;BMP280;56608;43.530;-5.652;2022-08-01T03:53:50;101730.56;;;23.21
69415;BMP280;56608;43.530;-5.652;2022-08-01T03:54:51;101731.28;;;23.27
69415;BMP280;56608;43.530;-5.652;2022-08-01T03:55:53;101729.56;;;23.30
69415;BMP280;56608;43.530;-5.652;2022-08-01T03:56:54;101732.03;;;23.34
69415;BMP280;56608;43.530;-5.652;2022-08-01T03:57:54;101731.81;;;23.26
69415;BMP280;56608;43.530;-5.652;2022-08-01T03:58:55;101738.03;;;23.21
69415;BMP280;56608;43.530;-5.652;2022-08-01T03:59:56;101734.56;;;23.26
69415;BMP280;56608;43.530;-5.652;2022-08-01T04:00:57;101731.56;;;23.29
69415;BMP280;56608;43.530;-5.652;2022-08-01T04:01:57;101732.31;;;23.30
69415;BMP280;56608;43.530;-5.652;2022-08-01T04:02:58;101741.03;;;23.34
69415;BMP280;56608;43.530;-5.652;2022-08-01T04:03:59;101740.28;;;23.17
69415;BMP280;56608;43.530;-5.652;2022-08-01T04:05:00;101742.06;;;23.14
69415;BMP280;56608;43.530;-5.652;2022-08-01T04:06:04;101742.28;;;23.16
69415;BMP280;56608;43.530;-5.652;2022-08-01T04:07:05;101753.50;;;23.18
69415;BMP280;56608;43.530;-5.652;2022-08-01T04:08:20;101747.50;;;23.25
69415;BMP280;56608;43.530;-5.652;2022-08-01T04:09:21;101747.25;;;23.29
69415;BMP280;56608;43.530;-5.652;2022-08-01T04:10:22;101753.50;;;23.29
69415;BMP280;56608;43.530;-5.652;2022-08-01T04:11:26;101752.22;;;23.30
69415;BMP280;56608;43.530;-5.652;2022-08-01T04:12:27;101760.72;;;23.27
69415;BMP280;56608;43.530;-5.652;2022-08-01T04:13:27;101756.50;;;23.15
69415;BMP280;56608;43.530;-5.652;2022-08-01T04:14:28;101755.72;;;23.20
69415;BMP280;56608;43.530;-5.652;2022-08-01T04:15:28;101751.50;;;23.24
69415;BMP280;56608;43.530;-5.652;2022-08-01T04:16:29;101757.50;;;23.23
69415;BMP280;56608;43.530;-5.652;2022-08-01T04:17:29;101756.00;;;23.22
69415;BMP280;56608;43.530;-5.652;2022-08-01T04:18:29;101759.47;;;23.28
69415;BMP280;56608;43.530;-5.652;2022-08-01T04:19:30;101761.47;;;23.22
69415;BMP280;56608;43.530;-5.652;2022-08-01T04:20:30;101755.22;;;23.27
69415;BMP280;56608;43.530;-5.652;2022-08-01T04:21:31;101753.22;;;23.33
69415;BMP280;56608;43.530;-5.652;2022-08-01T04:22:33;101743.28;;;23.36
69415;BMP280;56608;43.530;-5.652;2022-08-01T04:23:33;101749.97;;;23.35
69415;BMP280;56608;43.530;-5.652;2022-08-01T04:24:34;101748.50;;;23.34
69415;BMP280;56608;43.530;-5.652;2022-08-01T04:25:36;101745.75;;;23.28
69415;BMP280;56608;43.530;-5.652;2022-08-01T04:26:39;101749.75;;;23.33
69415;BMP280;56608;43.530;-5.652;2022-08-01T04:27:42;101753.72;;;23.32
69415;BMP280;56608;43.530;-5.652;2022-08-01T04:28:44;101749.00;;;23.32
69415;BMP280;56608;43.530;-5.652;2022-08-01T04:29:44;101752.25;;;23.25
69415;BMP280;56608;43.530;-5.652;2022-08-01T04:30:46;101753.25;;;23.22
69415;BMP280;56608;43.530;-5.652;2022-08-01T04:31:49;101748.75;;;23.24
69415;BMP280;56608;43.530;-5.652;2022-08-01T04:32:49;101754.97;;;23.19
69415;BMP280;56608;43.530;-5.652;2022-08-01T04:33:51;101748.25;;;23.26
69415;BMP280;56608;43.530;-5.652;2022-08-01T04:34:53;101748.50;;;23.34
69415;BMP280;56608;43.530;-5.652;2022-08-01T04:35:55;101741.53;;;23.16
69415;BMP280;56608;43.530;-5.652;2022-08-01T04:36:58;101744.78;;;23.20
69415;BMP280;56608;43.530;-5.652;2022-08-01T04:38:00;101743.78;;;23.23
69415;BMP280;56608;43.530;-5.652;2022-08-01T04:39:02;101739.31;;;23.14
69415;BMP280;56608;43.530;-5.652;2022-08-01T04:40:04;101748.28;;;23.15
69415;BMP280;56608;43.530;-5.652;2022-08-01T04:41:06;101743.28;;;23.08
69415;BMP280;56608;43.530;-5.652;2022-08-01T04:42:06;101745.81;;;23.11
69415;BMP280;56608;43.530;-5.652;2022-08-01T04:43:07;101752.75;;;23.18
69415;BMP280;56608;43.530;-5.652;2022-08-01T04:44:08;101744.28;;;23.21
69415;BMP280;56608;43.530;-5.652;2022-08-01T04:45:08;101745.03;;;23.22
69415;BMP280;56608;43.530;-5.652;2022-08-01T04:46:09;101741.81;;;23.18
69415;BMP280;56608;43.530;-5.652;2022-08-01T04:47:09;101743.03;;;23.22
69415;BMP280;56608;43.530;-5.652;2022-08-01T04:48:10;101736.06;;;23.21
69415;BMP280;56608;43.530;-5.652;2022-08-01T04:49:11;101742.03;;;23.20
69415;BMP280;56608;43.530;-5.652;2022-08-01T04:50:11;101741.03;;;23.17
69415;BMP280;56608;43.530;-5.652;2022-08-01T04:51:12;101741.06;;;23.23
69415;BMP280;56608;43.530;-5.652;2022-08-01T04:52:15;101743.81;;;23.12
69415;BMP280;56608;43.530;-5.652;2022-08-01T04:53:18;101739.31;;;23.14
69415;BMP280;56608;43.530;-5.652;2022-08-01T04:54:19;101742.28;;;23.22
69415;BMP280;56608;43.530;-5.652;2022-08-01T04:55:21;101749.50;;;23.19
69415;BMP280;56608;43.530;-5.652;2022-08-01T04:56:21;101746.28;;;23.21
69415;BMP280;56608;43.530;-5.652;2022-08-01T04:57:22;101741.81;;;23.18
69415;BMP280;56608;43.530;-5.652;2022-08-01T04:58:22;101753.50;;;23.18
69415;BMP280;56608;43.530;-5.652;2022-08-01T04:59:22;101749.28;;;23.23
69415;BMP280;56608;43.530;-5.652;2022-08-01T05:00:41;101744.78;;;23.25
69415;BMP280;56608;43.530;-5.652;2022-08-01T05:01:41;101754.75;;;23.23
69415;BMP280;56608;43.530;-5.652;2022-08-01T05:02:41;101752.25;;;23.25
69415;BMP280;56608;43.530;-5.652;2022-08-01T05:03:42;101749.28;;;23.23
69415;BMP280;56608;43.530;-5.652;2022-08-01T05:04:43;101751.78;;;23.10
69415;BMP280;56608;43.530;-5.652;2022-08-01T05:05:43;101747.03;;;23.10
69415;BMP280;56608;43.530;-5.652;2022-08-01T05:06:44;101750.28;;;23.14
69415;BMP280;56608;43.530;-5.652;2022-08-01T05:07:44;101744.00;;;23.08
69415;BMP280;56608;43.530;-5.652;2022-08-01T05:08:44;101752.50;;;23.16
69415;BMP280;56608;43.530;-5.652;2022-08-01T05:09:45;101745.53;;;23.20
69415;BMP280;56608;43.530;-5.652;2022-08-01T05:10:46;101749.28;;;23.23
69415;BMP280;56608;43.530;-5.652;2022-08-01T05:11:46;101742.56;;;23.18
69415;BMP280;56608;43.530;-5.652;2022-08-01T05:12:46;101744.28;;;22.99
69415;BMP280;56608;43.530;-5.652;2022-08-01T05:13:47;101746.03;;;22.97
69415;BMP280;56608;43.530;-5.652;2022-08-01T05:14:47;101746.53;;;23.06
69415;BMP280;56608;43.530;-5.652;2022-08-01T05:15:48;101749.53;;;23.14
69415;BMP280;56608;43.530;-5.652;2022-08-01T05:16:48;101747.53;;;23.14
69415;BMP280;56608;43.530;-5.652;2022-08-01T05:17:48;101747.28;;;23.07
69415;BMP280;56608;43.530;-5.652;2022-08-01T05:18:49;101743.28;;;23.08
69415;BMP280;56608;43.530;-5.652;2022-08-01T05:19:49;101745.28;;;23.13
69415;BMP280;56608;43.530;-5.652;2022-08-01T05:20:50;101742.56;;;23.18
69415;BMP280;56608;43.530;-5.652;2022-08-01T05:21:50;101740.06;;;23.15
69415;BMP280;56608;43.530;-5.652;2022-08-01T05:22:50;101740.56;;;23.19
69415;BMP280;56608;43.530;-5.652;2022-08-01T05:23:51;101747.03;;;23.21
69415;BMP280;56608;43.530;-5.652;2022-08-01T05:24:51;101737.81;;;23.19
69415;BMP280;56608;43.530;-5.652;2022-08-01T05:25:52;101741.06;;;23.23
69415;BMP280;56608;43.530;-5.652;2022-08-01T05:26:53;101739.03;;;23.23
69415;BMP280;56608;43.530;-5.652;2022-08-01T05:27:53;101739.03;;;23.23
69415;BMP280;56608;43.530;-5.652;2022-08-01T05:28:53;101741.81;;;23.18
69415;BMP280;56608;43.530;-5.652;2022-08-01T05:29:54;101738.31;;;23.23
69415;BMP280;56608;43.530;-5.652;2022-08-01T05:30:54;101739.78;;;23.24
69415;BMP280;56608;43.530;-5.652;2022-08-01T05:31:55;101739.78;;;23.24
69415;BMP280;56608;43.530;-5.652;2022-08-01T05:32:55;101739.53;;;23.27
69415;BMP280;56608;43.530;-5.652;2022-08-01T05:33:55;101741.03;;;23.28
69415;BMP280;56608;43.530;-5.652;2022-08-01T05:34:56;101739.03;;;23.29
69415;BMP280;56608;43.530;-5.652;2022-08-01T05:35:56;101737.78;;;23.30
69415;BMP280;56608;43.530;-5.652;2022-08-01T05:36:56;101730.81;;;23.29
69415;BMP280;56608;43.530;-5.652;2022-08-01T05:37:57;101737.03;;;23.24
69415;BMP280;56608;43.530;-5.652;2022-08-01T05:38:57;101737.81;;;23.19
69415;BMP280;56608;43.530;-5.652;2022-08-01T05:39:58;101737.81;;;23.19
69415;BMP280;56608;43.530;-5.652;2022-08-01T05:40:58;101741.53;;;23.21
69415;BMP280;56608;43.530;-5.652;2022-08-01T05:41:58;101740.28;;;23.17
69415;BMP280;56608;43.530;-5.652;2022-08-01T05:42:59;101742.28;;;23.16
69415;BMP280;56608;43.530;-5.652;2022-08-01T05:43:59;101740.78;;;23.21
69415;BMP280;56608;43.530;-5.652;2022-08-01T05:45:00;101745.25;;;23.24
69415;BMP280;56608;43.530;-5.652;2022-08-01T05:46:00;101744.03;;;23.25
69415;BMP280;56608;43.530;-5.652;2022-08-01T05:47:01;101743.28;;;23.24
69415;BMP280;56608;43.530;-5.652;2022-08-01T05:48:02;101737.53;;;23.28
69415;BMP280;56608;43.530;-5.652;2022-08-01T05:49:03;101731.81;;;23.26
69415;BMP280;56608;43.530;-5.652;2022-08-01T05:50:04;101734.03;;;23.27
69415;BMP280;56608;43.530;-5.652;2022-08-01T05:51:05;101730.28;;;23.30
69415;BMP280;56608;43.530;-5.652;2022-08-01T05:52:05;101739.25;;;23.31
69415;BMP280;56608;43.530;-5.652;2022-08-01T05:53:05;101733.28;;;23.27
69415;BMP280;56608;43.530;-5.652;2022-08-01T05:54:06;101739.28;;;23.20
69415;BMP280;56608;43.530;-5.652;2022-08-01T05:55:06;101741.50;;;23.27
69415;BMP280;56608;43.530;-5.652;2022-08-01T05:56:07;101734.28;;;23.24